sensor_id;sensor_type;location;lat;lon;timestamp;pressure;altitude;pressure_sealevel;temperature;humidity
67099;BME280;54288;53.046;5.668;2022-10-13T00:25:10;102020.16;;;10.79;96.93
67099;BME280;54288;53.046;5.668;2022-10-13T01:01:21;101982.59;;;10.76;97.56
67099;BME280;54288;53.046;5.668;2022-10-13T06:28:26;101765.34;;;11.56;100.00
67099;BME280;54288;53.046;5.668;2022-10-13T06:54:10;101756.16;;;12.00;100.00
67099;BME280;54288;53.046;5.668;2022-10-13T06:56:36;101772.56;;;12.17;100.00
67099;BME280;54288;53.046;5.668;2022-10-13T06:59:08;101772.56;;;12.17;100.00
67099;BME280;54288;53.046;5.668;2022-10-13T07:01:36;101755.16;;;12.12;100.00
67099;BME280;54288;53.046;5.668;2022-10-13T07:04:07;101750.81;;;12.06;100.00
67099;BME280;54288;53.046;5.668;2022-10-13T07:06:33;101770.69;;;12.28;100.00
67099;BME280;54288;53.046;5.668;2022-10-13T07:09:03;101753.28;;;12.18;100.00
67099;BME280;54288;53.046;5.668;2022-10-13T07:11:29;101755.84;;;12.24;100.00
67099;BME280;54288;53.046;5.668;2022-10-13T07:13:57;101756.72;;;12.23;100.00
67099;BME280;54288;53.046;5.668;2022-10-13T07:16:23;101743.66;;;12.20;100.00
67099;BME280;54288;53.046;5.668;2022-10-13T07:18:49;101774.88;;;12.41;100.00
67099;BME280;54288;53.046;5.668;2022-10-13T07:21:15;101775.75;;;12.43;100.00
67099;BME280;54288;53.046;5.668;2022-10-13T07:23:41;101753.09;;;12.34;100.00
67099;BME280;54288;53.046;5.668;2022-10-13T07:26:09;101747.88;;;12.31;100.00
67099;BME280;54288;53.046;5.668;2022-10-13T07:28:36;101753.03;;;12.39;100.00
67099;BME280;54288;53.046;5.668;2022-10-13T07:31:15;101757.34;;;12.43;100.00
67099;BME280;54288;53.046;5.668;2022-10-13T07:33:44;101744.25;;;12.38;100.00
67099;BME280;54288;53.046;5.668;2022-10-13T07:36:11;101750.34;;;12.42;100.00
67099;BME280;54288;53.046;5.668;2022-10-13T07:38:37;101778.16;;;12.58;100.00
67099;BME280;54288;53.046;5.668;2022-10-13T07:41:05;101759.03;;;12.47;100.00
67099;BME280;54288;53.046;5.668;2022-10-13T07:43:31;101763.34;;;12.52;100.00
67099;BME280;54288;53.046;5.668;2022-10-13T07:45:59;101779.00;;;12.60;100.00
67099;BME280;54288;53.046;5.668;2022-10-13T07:48:26;101772.97;;;12.53;100.00
67099;BME280;54288;53.046;5.668;2022-10-13T07:50:53;101769.34;;;12.60;100.00
67099;BME280;54288;53.046;5.668;2022-10-13T07:53:19;101781.66;;;12.60;100.00
67099;BME280;54288;53.046;5.668;2022-10-13T07:55:44;101759.00;;;12.51;100.00
67099;BME280;54288;53.046;5.668;2022-10-13T07:58:10;101766.72;;;12.60;100.00
67099;BME280;54288;53.046;5.668;2022-10-13T08:00:35;101777.13;;;12.68;100.00
67099;BME280;54288;53.046;5.668;2022-10-13T08:03:01;101770.16;;;12.65;100.00
67099;BME280;54288;53.046;5.668;2022-10-13T08:05:27;101791.03;;;12.76;100.00
67099;BME280;54288;53.046;5.668;2022-10-13T08:07:53;101790.16;;;12.77;100.00
67099;BME280;54288;53.046;5.668;2022-10-13T08:10:18;101784.00;;;12.79;100.00
67099;BME280;54288;53.046;5.668;2022-10-13T08:12:45;101793.56;;;12.82;100.00
67099;BME280;54288;53.046;5.668;2022-10-13T08:15:11;101776.97;;;12.78;100.00
67099;BME280;54288;53.046;5.668;2022-10-13T08:17:37;101766.44;;;12.78;100.00
67099;BME280;54288;53.046;5.668;2022-10-13T08:20:04;101784.66;;;12.92;100.00
67099;BME280;54288;53.046;5.668;2022-10-13T08:22:30;101775.88;;;12.93;100.00
67099;BME280;54288;53.046;5.668;2022-10-13T08:25:02;101773.25;;;12.93;100.00
67099;BME280;54288;53.046;5.668;2022-10-13T08:27:28;101775.66;;;13.11;100.00
67099;BME280;54288;53.046;5.668;2022-10-13T08:29:54;101779.09;;;13.13;100.00
67099;BME280;54288;53.046;5.668;2022-10-13T08:32:21;101780.75;;;13.20;100.00
67099;BME280;54288;53.046;5.668;2022-10-13T08:34:48;101781.44;;;13.29;100.00
67099;BME280;54288;53.046;5.668;2022-10-13T08:37:16;101781.25;;;13.41;100.00
67099;BME280;54288;53.046;5.668;2022-10-13T08:39:42;101773.41;;;13.40;100.00
67099;BME280;54288;53.046;5.668;2022-10-13T08:42:16;101781.25;;;13.41;100.00
67099;BME280;54288;53.046;5.668;2022-10-13T08:50:23;101781.25;;;13.41;100.00
67099;BME280;54288;53.046;5.668;2022-10-13T08:55:38;101778.69;;;13.37;100.00
67099;BME280;54288;53.046;5.668;2022-10-13T08:58:13;101780.53;;;13.32;100.00
67099;BME280;54288;53.046;5.668;2022-10-13T09:00:43;101794.44;;;13.40;100.00
67099;BME280;54288;53.046;5.668;2022-10-13T09:03:23;101789.19;;;13.38;100.00
67099;BME280;54288;53.046;5.668;2022-10-13T09:08:43;101799.75;;;13.37;100.00
67099;BME280;54288;53.046;5.668;2022-10-13T09:11:12;101793.63;;;13.36;100.00
67099;BME280;54288;53.046;5.668;2022-10-13T09:13:37;101794.56;;;13.34;100.00
67099;BME280;54288;53.046;5.668;2022-10-13T09:16:03;101799.75;;;13.37;100.00
67099;BME280;54288;53.046;5.668;2022-10-13T09:18:30;101790.94;;;13.39;100.00
67099;BME280;54288;53.046;5.668;2022-10-13T09:21:20;101792.63;;;13.45;100.00
67099;BME280;54288;53.046;5.668;2022-10-13T09:23:48;101786.44;;;13.46;100.00
67099;BME280;54288;53.046;5.668;2022-10-13T09:26:19;101786.34;;;13.50;100.00
67099;BME280;54288;53.046;5.668;2022-10-13T09:28:46;101793.25;;;13.56;100.00
67099;BME280;54288;53.046;5.668;2022-10-13T09:31:25;101794.16;;;13.56;100.00
67099;BME280;54288;53.046;5.668;2022-10-13T09:34:43;101801.03;;;13.63;100.00
67099;BME280;54288;53.046;5.668;2022-10-13T09:37:05;101802.75;;;13.64;100.00
67099;BME280;54288;53.046;5.668;2022-10-13T09:39:32;101808.91;;;13.65;100.00
67099;BME280;54288;53.046;5.668;2022-10-13T09:42:21;101802.75;;;13.66;100.00
67099;BME280;54288;53.046;5.668;2022-10-13T09:45:16;101797.38;;;13.72;100.00
67099;BME280;54288;53.046;5.668;2022-10-13T09:47:53;101790.22;;;13.80;100.00
67099;BME280;54288;53.046;5.668;2022-10-13T09:50:26;101790.94;;;13.88;100.00
67099;BME280;54288;53.046;5.668;2022-10-13T09:53:23;101791.63;;;13.97;100.00
67099;BME280;54288;53.046;5.668;2022-10-13T09:56:07;101800.16;;;14.10;100.00
67099;BME280;54288;53.046;5.668;2022-10-13T09:58:40;101795.59;;;14.18;100.00
67099;BME280;54288;53.046;5.668;2022-10-13T10:01:19;101791.94;;;14.26;100.00
67099;BME280;54288;53.046;5.668;2022-10-13T10:03:48;101796.34;;;14.27;100.00
67099;BME280;54288;53.046;5.668;2022-10-13T10:06:15;101798.00;;;14.30;100.00
67099;BME280;54288;53.046;5.668;2022-10-13T10:08:54;101792.69;;;14.33;100.00
67099;BME280;54288;53.046;5.668;2022-10-13T10:11:36;101788.25;;;14.35;100.00
67099;BME280;54288;53.046;5.668;2022-10-13T10:14:31;101786.34;;;14.43;100.00
67099;BME280;54288;53.046;5.668;2022-10-13T10:17:19;101790.47;;;14.53;100.00
67099;BME280;54288;53.046;5.668;2022-10-13T10:22:48;101787.16;;;14.45;100.00
67099;BME280;54288;53.046;5.668;2022-10-13T10:30:42;101787.91;;;14.51;100.00
67099;BME280;54288;53.046;5.668;2022-10-13T10:33:19;101785.31;;;14.48;100.00
67099;BME280;54288;53.046;5.668;2022-10-13T10:41:15;101781.75;;;14.51;100.00
67099;BME280;54288;53.046;5.668;2022-10-13T10:46:52;101783.28;;;14.62;100.00
67099;BME280;54288;53.046;5.668;2022-10-13T10:49:36;101785.69;;;14.71;100.00
67099;BME280;54288;53.046;5.668;2022-10-13T10:52:26;101782.00;;;14.78;100.00
67099;BME280;54288;53.046;5.668;2022-10-13T10:55:16;101774.81;;;14.86;100.00
67099;BME280;54288;53.046;5.668;2022-10-13T10:58:05;101782.44;;;14.98;100.00
67099;BME280;54288;53.046;5.668;2022-10-13T11:00:46;101776.94;;;15.07;100.00
67099;BME280;54288;53.046;5.668;2022-10-13T11:03:34;101780.19;;;15.18;100.00
67099;BME280;54288;53.046;5.668;2022-10-13T11:06:50;101776.78;;;15.13;99.70
67099;BME280;54288;53.046;5.668;2022-10-13T11:08:51;101769.97;;;15.05;99.65
67099;BME280;54288;53.046;5.668;2022-10-13T11:13:52;101773.56;;;15.01;98.27
67099;BME280;54288;53.046;5.668;2022-10-13T11:16:39;101770.19;;;14.94;99.05
67099;BME280;54288;53.046;5.668;2022-10-13T11:35:12;101759.44;;;15.03;99.27
67099;BME280;54288;53.046;5.668;2022-10-13T11:40:36;101752.63;;;14.95;98.49
67099;BME280;54288;53.046;5.668;2022-10-13T20:33:18;101759.50;;;12.13;100.00
67099;BME280;54288;53.046;5.668;2022-10-13T20:35:44;101734.31;;;11.98;100.00
67099;BME280;54288;53.046;5.668;2022-10-13T20:38:10;101750.00;;;12.02;100.00
67099;BME280;54288;53.046;5.668;2022-10-13T20:40:35;101756.94;;;12.07;100.00
67099;BME280;54288;53.046;5.668;2022-10-13T20:43:01;101743.84;;;12.02;100.00
67099;BME280;54288;53.046;5.668;2022-10-13T20:45:27;101762.97;;;12.13;100.00
67099;BME280;54288;53.046;5.668;2022-10-13T20:47:53;101761.25;;;12.12;100.00
67099;BME280;54288;53.046;5.668;2022-10-13T20:50:18;101759.50;;;12.11;100.00
67099;BME280;54288;53.046;5.668;2022-10-13T20:52:44;101742.19;;;11.95;100.00
67099;BME280;54288;53.046;5.668;2022-10-13T20:55:10;101763.03;;;12.12;100.00
67099;BME280;54288;53.046;5.668;2022-10-13T20:57:35;101762.94;;;12.16;100.00
67099;BME280;54288;53.046;5.668;2022-10-13T21:00:02;101729.91;;;11.97;100.00
67099;BME280;54288;53.046;5.668;2022-10-13T21:02:28;101750.75;;;12.12;100.00
67099;BME280;54288;53.046;5.668;2022-10-13T21:04:54;101749.88;;;12.12;100.00
67099;BME280;54288;53.046;5.668;2022-10-13T21:07:19;101752.44;;;12.18;100.00
67099;BME280;54288;53.046;5.668;2022-10-13T21:09:45;101743.84;;;12.02;100.00
67099;BME280;54288;53.046;5.668;2022-10-13T21:12:10;101740.47;;;11.96;100.00
67099;BME280;54288;53.046;5.668;2022-10-13T21:14:37;101752.59;;;12.04;100.00
67099;BME280;54288;53.046;5.668;2022-10-13T21:17:02;101751.72;;;12.02;100.00
67099;BME280;54288;53.046;5.668;2022-10-13T21:19:28;101719.69;;;11.76;100.00
67099;BME280;54288;53.046;5.668;2022-10-13T21:21:54;101756.28;;;11.88;100.00
67099;BME280;54288;53.046;5.668;2022-10-13T21:24:19;101744.22;;;11.72;100.00
67099;BME280;54288;53.046;5.668;2022-10-13T21:26:45;101732.13;;;11.59;100.00
67099;BME280;54288;53.046;5.668;2022-10-13T21:29:12;101738.22;;;11.58;100.00
67099;BME280;54288;53.046;5.668;2022-10-13T21:31:38;101738.22;;;11.58;100.00
67099;BME280;54288;53.046;5.668;2022-10-13T21:34:05;101761.81;;;11.64;100.00
67099;BME280;54288;53.046;5.668;2022-10-13T21:36:32;101760.09;;;11.60;100.00
67099;BME280;54288;53.046;5.668;2022-10-13T21:39:04;101740.09;;;11.44;100.00
67099;BME280;54288;53.046;5.668;2022-10-13T21:41:31;101723.66;;;11.29;100.00
67099;BME280;54288;53.046;5.668;2022-10-13T21:46:49;101755.84;;;11.44;100.00
67099;BME280;54288;53.046;5.668;2022-10-13T21:49:16;101746.28;;;11.37;100.00
67099;BME280;54288;53.046;5.668;2022-10-13T21:57:51;101737.72;;;11.20;100.00
